Time;durP1;ratioP1;P1;durP2;ratioP2;P2;SDS_P1;SDS_P2;PMS_P1;PMS_P2;Temp;Humidity;BMP_temperature;BMP_pressure;BME280_temperature;BME280_humidity;BME280_pressure;Samples;Min_cycle;Max_cycle;Signal;HPM_P1;HPM_P2
2022/10/23 00:01:39;;;;;;;0.30;0.30;;;;;;;;;;4970861;28;20675;-77
2022/10/23 00:04:11;;;;;;;0.00;0.00;;;;;;;;;;4969936;28;20477;-77
2022/10/23 00:06:37;;;;;;;0.10;0.10;;;;;;;;;;4968787;28;20525;-75
2022/10/23 00:09:05;;;;;;;0.10;0.10;;;;;;;;;;4968940;28;20424;-77
2022/10/23 00:11:31;;;;;;;0.20;0.20;;;;;;;;;;4971317;28;20412;-76
2022/10/23 00:13:58;;;;;;;0.30;0.30;;;;;;;;;;4972188;28;20408;-76
2022/10/23 00:16:24;;;;;;;0.10;0.10;;;;;;;;;;4975180;28;20870;-76
2022/10/23 00:18:50;;;;;;;0.10;0.10;;;;;;;;;;4973311;28;20423;-76
2022/10/23 00:21:17;;;;;;;0.10;0.10;;;;;;;;;;4975123;28;20434;-76
2022/10/23 00:23:43;;;;;;;0.10;0.10;;;;;;;;;;4973796;28;20465;-76
2022/10/23 00:26:10;;;;;;;0.10;0.10;;;;;;;;;;4974968;28;20407;-75
2022/10/23 00:28:37;;;;;;;0.10;0.10;;;;;;;;;;4974195;28;20420;-76
2022/10/23 00:31:04;;;;;;;0.10;0.10;;;;;;;;;;4972963;28;20430;-76
2022/10/23 00:33:30;;;;;;;0.10;0.10;;;;;;;;;;4990211;28;20430;-75
2022/10/23 00:35:56;;;;;;;0.10;0.10;;;;;;;;;;4974481;28;20466;-75
2022/10/23 00:38:22;;;;;;;0.10;0.10;;;;;;;;;;4972813;28;20510;-76
2022/10/23 00:40:48;;;;;;;0.10;0.10;;;;;;;;;;4973614;28;20489;-77
2022/10/23 00:43:19;;;;;;;0.10;0.10;;;;;;;;;;4972654;28;20447;-76
2022/10/23 00:45:45;;;;;;;0.30;0.30;;;;;;;;;;4974272;28;20416;-75
2022/10/23 00:48:11;;;;;;;0.20;0.15;;;;;;;;;;4974135;28;20443;-75
2022/10/23 00:50:37;;;;;;;0.10;0.10;;;;;;;;;;4974917;28;20408;-76
2022/10/23 00:53:04;;;;;;;0.10;0.10;;;;;;;;;;4988495;28;20938;-77
2022/10/23 00:55:31;;;;;;;0.10;0.10;;;;;;;;;;4974563;28;20454;-76
2022/10/23 00:57:57;;;;;;;0.10;0.10;;;;;;;;;;4974114;28;20439;-76
2022/10/23 01:00:29;;;;;;;0.10;0.10;;;;;;;;;;4988552;28;20856;-76
2022/10/23 01:02:56;;;;;;;0.10;0.10;;;;;;;;;;4973563;28;20904;-76
2022/10/23 01:05:24;;;;;;;0.10;0.10;;;;;;;;;;4974261;28;20428;-75
2022/10/23 01:07:54;;;;;;;0.10;0.10;;;;;;;;;;4973514;28;20450;-76
2022/10/23 01:10:25;;;;;;;0.10;0.10;;;;;;;;;;4973348;28;20488;-77
2022/10/23 01:13:07;;;;;;;0.10;0.10;;;;;;;;;;4972664;28;20470;-76
2022/10/23 01:15:42;;;;;;;0.10;0.10;;;;;;;;;;4974217;28;20458;-75
2022/10/23 01:18:16;;;;;;;0.10;0.10;;;;;;;;;;4973290;28;20967;-75
2022/10/23 01:20:44;;;;;;;0.15;0.15;;;;;;;;;;4973752;28;20468;-76
2022/10/23 01:23:14;;;;;;;0.10;0.10;;;;;;;;;;4973353;28;20477;-75
2022/10/23 01:25:40;;;;;;;0.10;0.10;;;;;;;;;;4973598;28;20476;-75
2022/10/23 01:28:09;;;;;;;0.10;0.10;;;;;;;;;;4973057;28;20416;-76
2022/10/23 01:30:37;;;;;;;0.00;0.00;;;;;;;;;;4973308;28;20476;-76
2022/10/23 01:33:07;;;;;;;0.10;0.10;;;;;;;;;;4972480;28;20501;-75
2022/10/23 01:35:51;;;;;;;0.40;0.20;;;;;;;;;;4973420;28;20461;-75
2022/10/23 01:38:49;;;;;;;0.20;0.20;;;;;;;;;;4973457;28;20456;-76
2022/10/23 01:41:17;;;;;;;0.30;0.30;;;;;;;;;;4971422;28;20490;-75
2022/10/23 01:43:49;;;;;;;0.10;0.10;;;;;;;;;;4973506;28;20416;-75
2022/10/23 01:46:16;;;;;;;0.10;0.10;;;;;;;;;;4971965;28;20477;-75
2022/10/23 01:48:44;;;;;;;0.10;0.10;;;;;;;;;;4971768;28;20814;-75
2022/10/23 01:51:11;;;;;;;0.10;0.10;;;;;;;;;;4973278;28;20408;-75
2022/10/23 01:53:40;;;;;;;0.13;0.13;;;;;;;;;;4972630;28;20451;-75
2022/10/23 01:56:08;;;;;;;0.10;0.10;;;;;;;;;;4972917;28;20945;-76
2022/10/23 01:58:35;;;;;;;0.10;0.10;;;;;;;;;;4973305;28;20451;-75
2022/10/23 02:01:03;;;;;;;0.00;0.00;;;;;;;;;;4972317;28;20416;-75
2022/10/23 02:03:31;;;;;;;0.10;0.10;;;;;;;;;;4973059;28;20420;-76
2022/10/23 02:05:57;;;;;;;0.10;0.10;;;;;;;;;;4972302;28;20462;-75
2022/10/23 02:08:24;;;;;;;0.10;0.10;;;;;;;;;;4973127;28;20431;-75
2022/10/23 02:10:53;;;;;;;0.10;0.10;;;;;;;;;;4987778;28;20424;-75
2022/10/23 02:13:30;;;;;;;0.10;0.10;;;;;;;;;;4971814;28;20458;-76
2022/10/23 02:16:08;;;;;;;0.10;0.10;;;;;;;;;;4972401;28;20420;-76
2022/10/23 02:18:37;;;;;;;0.10;0.10;;;;;;;;;;4973061;28;20458;-75
2022/10/23 02:21:12;;;;;;;0.10;0.10;;;;;;;;;;4973062;28;20467;-75
2022/10/23 02:23:38;;;;;;;0.10;0.10;;;;;;;;;;4973890;28;20973;-75
2022/10/23 02:26:07;;;;;;;0.10;0.10;;;;;;;;;;4973182;28;20423;-75
2022/10/23 02:28:53;;;;;;;0.10;0.10;;;;;;;;;;4973724;28;20541;-74
2022/10/23 02:31:21;;;;;;;0.30;0.30;;;;;;;;;;4973330;28;20809;-75
2022/10/23 02:33:47;;;;;;;0.10;0.10;;;;;;;;;;4974016;28;20412;-75
2022/10/23 02:36:13;;;;;;;0.10;0.10;;;;;;;;;;4972753;28;20412;-76
2022/10/23 02:38:41;;;;;;;0.20;0.20;;;;;;;;;;4973329;28;20414;-75
2022/10/23 02:41:10;;;;;;;0.10;0.10;;;;;;;;;;4973135;28;20427;-75
2022/10/23 02:43:39;;;;;;;0.60;0.60;;;;;;;;;;4973803;28;20549;-75
2022/10/23 02:46:14;;;;;;;0.10;0.10;;;;;;;;;;4972025;28;20462;-75
2022/10/23 02:48:47;;;;;;;0.10;0.10;;;;;;;;;;4972323;28;20489;-75
2022/10/23 02:51:13;;;;;;;0.10;0.10;;;;;;;;;;4972594;28;20512;-75
2022/10/23 02:53:39;;;;;;;0.08;0.08;;;;;;;;;;4972644;28;20479;-75
2022/10/23 02:56:12;;;;;;;0.10;0.10;;;;;;;;;;4971594;28;20515;-77
2022/10/23 02:58:46;;;;;;;0.10;0.10;;;;;;;;;;4972154;28;20503;-75
2022/10/23 03:01:15;;;;;;;0.10;0.10;;;;;;;;;;4970906;28;20545;-76
2022/10/23 03:03:44;;;;;;;0.10;0.10;;;;;;;;;;4971812;28;20442;-74
2022/10/23 03:06:10;;;;;;;0.40;0.40;;;;;;;;;;4970658;28;20521;-75
2022/10/23 03:09:02;;;;;;;0.40;0.30;;;;;;;;;;4971641;28;20503;-76
2022/10/23 03:11:29;;;;;;;0.20;0.20;;;;;;;;;;4969400;28;20510;-74
2022/10/23 03:13:55;;;;;;;0.20;0.20;;;;;;;;;;4971845;28;20526;-75
2022/10/23 03:16:21;;;;;;;0.10;0.10;;;;;;;;;;4970599;28;20462;-76
2022/10/23 03:18:47;;;;;;;0.10;0.10;;;;;;;;;;4971462;28;20416;-75
2022/10/23 03:21:13;;;;;;;0.10;0.10;;;;;;;;;;4970435;28;20431;-76
2022/10/23 03:23:39;;;;;;;0.05;0.05;;;;;;;;;;4971657;28;20412;-77
2022/10/23 03:26:05;;;;;;;0.10;0.10;;;;;;;;;;4986194;28;20411;-75
2022/10/23 03:28:31;;;;;;;0.10;0.10;;;;;;;;;;4970484;28;20431;-75
2022/10/23 03:30:57;;;;;;;0.10;0.10;;;;;;;;;;4971722;28;20459;-75
2022/10/23 03:33:23;;;;;;;0.10;0.10;;;;;;;;;;4970230;28;20427;-75
2022/10/23 03:35:49;;;;;;;0.10;0.10;;;;;;;;;;4986163;28;20420;-75
2022/10/23 03:38:16;;;;;;;0.10;0.10;;;;;;;;;;4970542;28;20412;-75
2022/10/23 03:40:42;;;;;;;0.10;0.10;;;;;;;;;;4971101;28;20408;-75
2022/10/23 03:43:08;;;;;;;0.10;0.10;;;;;;;;;;4970469;28;20839;-75
2022/10/23 03:45:37;;;;;;;0.10;0.10;;;;;;;;;;4971316;28;20950;-75
2022/10/23 03:48:03;;;;;;;0.10;0.10;;;;;;;;;;4970696;28;20423;-75
2022/10/23 03:50:29;;;;;;;0.00;0.00;;;;;;;;;;4971817;28;20506;-75
2022/10/23 03:52:55;;;;;;;0.08;0.08;;;;;;;;;;4969980;28;20475;-74
2022/10/23 03:55:21;;;;;;;0.10;0.10;;;;;;;;;;4971159;28;20475;-75
2022/10/23 03:57:47;;;;;;;0.10;0.10;;;;;;;;;;4971315;28;20404;-74
2022/10/23 04:00:14;;;;;;;0.10;0.10;;;;;;;;;;4970608;28;20404;-75
2022/10/23 04:02:40;;;;;;;0.10;0.10;;;;;;;;;;4972378;28;20851;-75
2022/10/23 04:05:06;;;;;;;0.00;0.00;;;;;;;;;;4971575;28;20416;-75
2022/10/23 04:07:32;;;;;;;0.10;0.10;;;;;;;;;;4970754;28;20420;-75
2022/10/23 04:09:58;;;;;;;0.10;0.10;;;;;;;;;;4971004;28;20637;-75
2022/10/23 04:12:24;;;;;;;0.10;0.10;;;;;;;;;;4970267;28;20498;-75
2022/10/23 04:14:50;;;;;;;0.10;0.10;;;;;;;;;;4972143;28;20407;-75
2022/10/23 04:17:16;;;;;;;0.10;0.10;;;;;;;;;;4985508;28;20427;-74
2022/10/23 04:19:42;;;;;;;0.10;0.10;;;;;;;;;;4970073;28;20412;-75
2022/10/23 04:22:08;;;;;;;0.10;0.10;;;;;;;;;;4970130;28;20938;-75
2022/10/23 04:24:34;;;;;;;0.20;0.20;;;;;;;;;;4971171;28;20867;-75
2022/10/23 04:27:00;;;;;;;0.10;0.10;;;;;;;;;;4985900;28;20439;-75
2022/10/23 04:29:30;;;;;;;0.10;0.10;;;;;;;;;;4970616;28;20414;-76
2022/10/23 04:31:56;;;;;;;0.10;0.10;;;;;;;;;;4969825;28;20465;-75
2022/10/23 04:34:22;;;;;;;0.10;0.10;;;;;;;;;;4970384;28;20419;-76
2022/10/23 04:36:48;;;;;;;0.10;0.10;;;;;;;;;;4985941;28;20414;-75
2022/10/23 04:39:14;;;;;;;0.10;0.10;;;;;;;;;;4970696;28;20500;-75
2022/10/23 04:41:40;;;;;;;0.50;0.50;;;;;;;;;;4970662;28;20428;-76
2022/10/23 04:44:07;;;;;;;0.10;0.10;;;;;;;;;;4969701;28;20511;-76
2022/10/23 04:46:33;;;;;;;0.00;0.00;;;;;;;;;;4970575;28;21022;-75
2022/10/23 04:48:59;;;;;;;0.10;0.10;;;;;;;;;;4969472;28;20418;-75
2022/10/23 04:51:25;;;;;;;0.10;0.10;;;;;;;;;;4971186;28;20431;-76
2022/10/23 04:53:51;;;;;;;0.40;0.40;;;;;;;;;;4969460;28;20420;-75
2022/10/23 04:56:17;;;;;;;0.20;0.20;;;;;;;;;;4970508;28;20501;-75
2022/10/23 04:58:43;;;;;;;0.10;0.10;;;;;;;;;;4971014;28;20506;-76
2022/10/23 05:01:09;;;;;;;0.10;0.10;;;;;;;;;;4973204;28;20790;-76
2022/10/23 05:03:35;;;;;;;0.10;0.10;;;;;;;;;;4974046;28;20412;-75
2022/10/23 05:06:02;;;;;;;0.10;0.10;;;;;;;;;;4973918;28;20412;-75
2022/10/23 05:08:28;;;;;;;0.10;0.10;;;;;;;;;;4973830;28;20445;-75
2022/10/23 05:10:54;;;;;;;0.10;0.10;;;;;;;;;;4973078;28;20466;-75
2022/10/23 05:13:20;;;;;;;0.20;0.20;;;;;;;;;;4973743;28;20879;-75
2022/10/23 05:15:50;;;;;;;0.10;0.10;;;;;;;;;;4973649;28;20419;-76
2022/10/23 05:18:20;;;;;;;0.10;0.10;;;;;;;;;;4972803;28;20458;-75
2022/10/23 05:20:47;;;;;;;0.00;0.00;;;;;;;;;;4973964;28;20465;-76
2022/10/23 05:23:14;;;;;;;0.07;0.07;;;;;;;;;;4973829;28;20838;-76
2022/10/23 05:25:40;;;;;;;0.10;0.10;;;;;;;;;;4973927;28;20416;-75
2022/10/23 05:28:06;;;;;;;0.10;0.10;;;;;;;;;;4973590;28;20767;-74
2022/10/23 05:30:33;;;;;;;0.10;0.10;;;;;;;;;;4974221;28;20951;-75
2022/10/23 05:33:00;;;;;;;0.10;0.10;;;;;;;;;;4973479;28;20408;-76
2022/10/23 05:35:26;;;;;;;0.10;0.10;;;;;;;;;;4972204;28;20415;-75
2022/10/23 05:37:53;;;;;;;0.10;0.10;;;;;;;;;;4973548;28;20822;-75
2022/10/23 05:40:19;;;;;;;0.20;0.20;;;;;;;;;;4973208;28;20448;-75
2022/10/23 05:42:46;;;;;;;0.10;0.10;;;;;;;;;;4973582;28;20428;-76
2022/10/23 05:45:12;;;;;;;1.20;0.30;;;;;;;;;;4972837;28;20419;-76
2022/10/23 05:47:38;;;;;;;0.10;0.10;;;;;;;;;;4973425;28;20815;-75
2022/10/23 05:50:04;;;;;;;0.17;0.17;;;;;;;;;;4972874;28;20412;-75
2022/10/23 05:52:30;;;;;;;0.47;0.47;;;;;;;;;;4973522;28;20443;-77
2022/10/23 05:54:56;;;;;;;0.10;0.10;;;;;;;;;;4971855;28;20467;-73
2022/10/23 05:57:22;;;;;;;0.20;0.20;;;;;;;;;;4973351;28;20422;-76
2022/10/23 05:59:48;;;;;;;0.40;0.40;;;;;;;;;;4973897;28;20416;-75
2022/10/23 06:02:14;;;;;;;0.10;0.10;;;;;;;;;;4972649;28;20519;-77
2022/10/23 06:04:40;;;;;;;0.10;0.10;;;;;;;;;;4971975;28;20408;-77
2022/10/23 06:07:06;;;;;;;0.20;0.20;;;;;;;;;;4973432;28;20428;-79
2022/10/23 06:09:32;;;;;;;0.30;0.30;;;;;;;;;;4971468;28;20539;-77
2022/10/23 06:11:58;;;;;;;0.25;0.25;;;;;;;;;;4972540;28;20411;-79
2022/10/23 06:14:24;;;;;;;0.30;0.30;;;;;;;;;;4973833;28;20412;-78
2022/10/23 06:16:50;;;;;;;0.10;0.10;;;;;;;;;;4972144;28;20404;-77
2022/10/23 06:19:16;;;;;;;0.10;0.10;;;;;;;;;;4972351;28;20416;-80
2022/10/23 06:21:42;;;;;;;0.10;0.10;;;;;;;;;;4988543;28;20779;-78
2022/10/23 06:24:08;;;;;;;0.10;0.10;;;;;;;;;;4972299;28;20416;-76
2022/10/23 06:26:34;;;;;;;0.10;0.10;;;;;;;;;;4972955;28;20411;-76
2022/10/23 06:29:00;;;;;;;0.10;0.10;;;;;;;;;;4972009;28;20422;-77
2022/10/23 06:31:27;;;;;;;0.10;0.10;;;;;;;;;;4972812;28;20416;-77
2022/10/23 06:33:56;;;;;;;0.05;0.05;;;;;;;;;;4973408;28;20474;-77
2022/10/23 06:36:23;;;;;;;0.10;0.10;;;;;;;;;;4987800;28;20576;-78
2022/10/23 06:38:49;;;;;;;0.10;0.10;;;;;;;;;;4973093;28;20420;-78
2022/10/23 06:41:17;;;;;;;0.55;0.25;;;;;;;;;;4955707;28;20420;-78
2022/10/23 06:43:43;;;;;;;0.10;0.10;;;;;;;;;;4972014;28;20732;-75
2022/10/23 06:46:09;;;;;;;0.30;0.30;;;;;;;;;;4972953;28;20416;-76
2022/10/23 06:48:35;;;;;;;0.10;0.10;;;;;;;;;;4971663;28;20447;-79
2022/10/23 06:51:08;;;;;;;0.10;0.10;;;;;;;;;;4972570;28;20451;-75
2022/10/23 06:53:35;;;;;;;0.10;0.10;;;;;;;;;;4972343;28;20813;-76
2022/10/23 06:56:02;;;;;;;0.20;0.20;;;;;;;;;;4971499;28;20423;-76
2022/10/23 06:58:28;;;;;;;0.60;0.60;;;;;;;;;;4971849;28;20514;-76
2022/10/23 07:00:54;;;;;;;0.15;0.15;;;;;;;;;;4970759;28;20424;-76
2022/10/23 07:03:20;;;;;;;0.43;0.43;;;;;;;;;;4970458;28;20428;-75
2022/10/23 07:05:46;;;;;;;0.10;0.10;;;;;;;;;;4970925;28;20930;-75
2022/10/23 07:08:13;;;;;;;0.10;0.10;;;;;;;;;;4971951;28;20496;-73
2022/10/23 07:10:43;;;;;;;0.30;0.30;;;;;;;;;;4971232;28;20743;-73
2022/10/23 07:13:09;;;;;;;0.10;0.10;;;;;;;;;;4971744;28;20457;-74
2022/10/23 07:15:36;;;;;;;0.17;0.17;;;;;;;;;;4971189;28;20422;-73
2022/10/23 07:18:02;;;;;;;2.70;0.60;;;;;;;;;;4971899;28;20883;-75
2022/10/23 07:20:28;;;;;;;0.30;0.30;;;;;;;;;;4970929;28;20958;-76
2022/10/23 07:22:54;;;;;;;0.10;0.10;;;;;;;;;;4971092;28;20440;-75
2022/10/23 07:25:21;;;;;;;0.10;0.10;;;;;;;;;;4985838;28;20408;-75
2022/10/23 07:27:47;;;;;;;0.40;0.40;;;;;;;;;;4970923;28;20414;-75
2022/10/23 07:30:13;;;;;;;0.20;0.20;;;;;;;;;;4970761;28;20917;-78
2022/10/23 07:32:39;;;;;;;0.10;0.10;;;;;;;;;;4970176;28;20427;-76
2022/10/23 07:35:06;;;;;;;0.30;0.30;;;;;;;;;;4970398;28;20416;-80
2022/10/23 07:37:32;;;;;;;0.30;0.30;;;;;;;;;;4969060;28;20416;-75
2022/10/23 07:39:58;;;;;;;0.10;0.10;;;;;;;;;;4970736;28;20489;-81
2022/10/23 07:42:24;;;;;;;0.10;0.10;;;;;;;;;;4968431;28;20431;-76
2022/10/23 07:44:50;;;;;;;0.10;0.10;;;;;;;;;;4970426;28;20588;-76
2022/10/23 07:47:16;;;;;;;0.13;0.13;;;;;;;;;;4971115;28;20888;-77
2022/10/23 07:49:42;;;;;;;0.10;0.10;;;;;;;;;;4970624;28;20492;-76
2022/10/23 07:52:08;;;;;;;0.20;0.20;;;;;;;;;;4970762;28;20452;-77
2022/10/23 07:54:34;;;;;;;0.10;0.10;;;;;;;;;;4970588;28;20424;-78
2022/10/23 07:57:00;;;;;;;0.10;0.10;;;;;;;;;;4971545;28;20965;-78
2022/10/23 07:59:26;;;;;;;0.20;0.20;;;;;;;;;;4970595;28;20547;-77
2022/10/23 08:01:56;;;;;;;0.20;0.17;;;;;;;;;;4970509;28;20444;-76
2022/10/23 08:04:23;;;;;;;0.70;0.35;;;;;;;;;;4971357;28;20427;-77
2022/10/23 08:06:49;;;;;;;0.30;0.30;;;;;;;;;;4971490;28;20507;-76
2022/10/23 08:09:15;;;;;;;0.22;0.22;;;;;;;;;;4970529;28;20471;-77
2022/10/23 08:11:41;;;;;;;0.10;0.10;;;;;;;;;;4971672;28;20474;-75
2022/10/23 08:14:08;;;;;;;0.20;0.20;;;;;;;;;;4971031;28;20412;-80
2022/10/23 08:16:35;;;;;;;0.10;0.10;;;;;;;;;;4970170;28;20424;-78
2022/10/23 08:19:01;;;;;;;0.30;0.30;;;;;;;;;;4970713;28;20408;-78
2022/10/23 08:21:27;;;;;;;0.10;0.10;;;;;;;;;;4969535;28;20455;-77
2022/10/23 08:23:57;;;;;;;0.17;0.17;;;;;;;;;;4970180;28;20420;-77
2022/10/23 08:26:24;;;;;;;0.10;0.10;;;;;;;;;;4953272;28;20777;-78
2022/10/23 08:28:50;;;;;;;0.40;0.40;;;;;;;;;;4969274;28;20416;-78
2022/10/23 08:31:17;;;;;;;0.10;0.10;;;;;;;;;;4968761;28;20420;-76
2022/10/23 08:33:44;;;;;;;0.43;0.43;;;;;;;;;;4968993;28;20411;-78
2022/10/23 08:36:17;;;;;;;2.20;1.00;;;;;;;;;;4972740;28;20423;-78
2022/10/23 08:38:43;;;;;;;0.20;0.20;;;;;;;;;;4972501;28;20412;-79
2022/10/23 08:41:23;;;;;;;0.10;0.10;;;;;;;;;;4972506;28;20416;-79
2022/10/23 08:43:54;;;;;;;0.13;0.13;;;;;;;;;;4974132;28;20416;-81
2022/10/23 08:46:23;;;;;;;0.10;0.10;;;;;;;;;;4972179;28;20466;-80
2022/10/23 08:49:06;;;;;;;0.10;0.10;;;;;;;;;;4972200;28;20420;-80
2022/10/23 08:51:39;;;;;;;0.40;0.40;;;;;;;;;;4972967;28;20480;-80
2022/10/23 08:54:14;;;;;;;0.10;0.10;;;;;;;;;;4974120;28;20423;-79
2022/10/23 08:56:46;;;;;;;0.10;0.10;;;;;;;;;;4974489;28;20412;-77
2022/10/23 08:59:38;;;;;;;0.10;0.10;;;;;;;;;;4973925;28;20783;-77
2022/10/23 09:02:07;;;;;;;0.20;0.20;;;;;;;;;;4973223;28;20531;-77
2022/10/23 09:04:34;;;;;;;0.50;0.50;;;;;;;;;;4973254;28;20585;-80
2022/10/23 09:07:19;;;;;;;0.10;0.10;;;;;;;;;;4972436;28;20469;-79
2022/10/23 09:09:52;;;;;;;2.00;1.00;;;;;;;;;;4971583;28;20435;-79
2022/10/23 09:12:22;;;;;;;0.50;0.50;;;;;;;;;;4971999;28;20439;-79
2022/10/23 09:15:10;;;;;;;0.10;0.10;;;;;;;;;;4972180;28;20412;-80
2022/10/23 09:17:39;;;;;;;0.10;0.10;;;;;;;;;;4973029;28;20424;-79
2022/10/23 09:20:24;;;;;;;0.20;0.20;;;;;;;;;;4970513;28;20748;-80
2022/10/23 09:23:00;;;;;;;0.20;0.20;;;;;;;;;;4972564;28;20486;-81
2022/10/23 09:25:39;;;;;;;0.10;0.10;;;;;;;;;;4972630;28;20440;-81
2022/10/23 09:28:05;;;;;;;0.10;0.10;;;;;;;;;;4972842;28;20425;-81
2022/10/23 09:30:31;;;;;;;0.15;0.15;;;;;;;;;;4971341;28;20416;-81
2022/10/23 09:32:58;;;;;;;0.50;0.50;;;;;;;;;;4972506;28;20428;-80
2022/10/23 09:35:26;;;;;;;0.10;0.10;;;;;;;;;;4971953;28;20503;-80
2022/10/23 09:37:52;;;;;;;0.40;0.40;;;;;;;;;;4972796;28;20792;-80
2022/10/23 09:40:18;;;;;;;0.30;0.30;;;;;;;;;;4972730;28;20443;-81
2022/10/23 09:42:56;;;;;;;0.80;0.80;;;;;;;;;;4972237;28;20787;-79
2022/10/23 09:45:23;;;;;;;0.10;0.10;;;;;;;;;;4972723;28;20474;-79
2022/10/23 09:47:50;;;;;;;0.10;0.10;;;;;;;;;;4971267;28;20422;-79
2022/10/23 09:50:20;;;;;;;0.20;0.20;;;;;;;;;;4972226;28;20453;-79
2022/10/23 09:52:52;;;;;;;1.60;0.30;;;;;;;;;;4972403;28;20747;-79
2022/10/23 09:55:23;;;;;;;0.30;0.20;;;;;;;;;;4971166;28;20914;-78
2022/10/23 09:57:50;;;;;;;0.10;0.10;;;;;;;;;;4971534;28;20754;-80
2022/10/23 10:00:24;;;;;;;0.40;0.40;;;;;;;;;;4970746;28;20494;-80
2022/10/23 10:02:58;;;;;;;1.10;0.40;;;;;;;;;;4969915;28;20772;-81
2022/10/23 10:05:28;;;;;;;0.20;0.20;;;;;;;;;;4971700;28;20424;-80
2022/10/23 10:08:13;;;;;;;1.05;0.45;;;;;;;;;;4970748;28;20464;-81
2022/10/23 10:10:43;;;;;;;0.22;0.20;;;;;;;;;;4971199;28;20412;-78
2022/10/23 10:13:28;;;;;;;0.10;0.10;;;;;;;;;;4971584;28;20455;-78
2022/10/23 10:15:56;;;;;;;0.10;0.10;;;;;;;;;;4970320;28;20419;-78
2022/10/23 10:18:30;;;;;;;0.10;0.10;;;;;;;;;;4970877;28;20428;-77
2022/10/23 10:20:56;;;;;;;0.10;0.10;;;;;;;;;;4970623;28;20566;-78
2022/10/23 10:23:28;;;;;;;0.00;0.00;;;;;;;;;;4970936;28;20897;-79
2022/10/23 10:25:54;;;;;;;0.10;0.10;;;;;;;;;;4972347;28;20902;-78
2022/10/23 10:28:39;;;;;;;0.10;0.10;;;;;;;;;;4971455;28;20416;-80
2022/10/23 10:31:05;;;;;;;0.10;0.10;;;;;;;;;;4970680;28;20426;-79
2022/10/23 10:33:51;;;;;;;0.10;0.10;;;;;;;;;;4970001;28;20895;-81
2022/10/23 10:36:39;;;;;;;0.10;0.10;;;;;;;;;;4971276;28;20424;-81
2022/10/23 10:39:10;;;;;;;0.20;0.20;;;;;;;;;;4971486;28;20416;-83
2022/10/23 10:41:56;;;;;;;0.20;0.20;;;;;;;;;;4971419;28;20791;-82
2022/10/23 10:44:22;;;;;;;0.10;0.10;;;;;;;;;;4970782;28;20511;-81
2022/10/23 10:46:48;;;;;;;0.10;0.10;;;;;;;;;;4970933;28;20455;-81
2022/10/23 10:49:18;;;;;;;0.20;0.20;;;;;;;;;;4972209;28;20444;-84
2022/10/23 10:51:47;;;;;;;0.20;0.20;;;;;;;;;;4972158;28;20424;-83
2022/10/23 10:54:19;;;;;;;6.50;0.40;;;;;;;;;;4970210;28;20420;-81
2022/10/23 10:56:47;;;;;;;0.30;0.30;;;;;;;;;;4970782;28;20423;-82
2022/10/23 10:59:16;;;;;;;0.40;0.40;;;;;;;;;;4970480;28;20412;-82
2022/10/23 11:01:46;;;;;;;0.10;0.10;;;;;;;;;;4969506;28;20500;-82
2022/10/23 11:04:31;;;;;;;0.25;0.25;;;;;;;;;;4970917;28;20474;-81
2022/10/23 11:06:59;;;;;;;0.10;0.10;;;;;;;;;;4972229;28;20424;-82
2022/10/23 11:09:27;;;;;;;0.10;0.10;;;;;;;;;;4972259;28;20427;-79
2022/10/23 11:11:53;;;;;;;0.10;0.10;;;;;;;;;;4970475;28;20478;-79
2022/10/23 11:14:21;;;;;;;0.15;0.15;;;;;;;;;;4970606;28;20412;-79
2022/10/23 11:16:49;;;;;;;0.10;0.10;;;;;;;;;;4969523;28;20427;-83
2022/10/23 11:19:18;;;;;;;0.10;0.10;;;;;;;;;;4970280;28;20511;-82
2022/10/23 11:21:53;;;;;;;0.10;0.10;;;;;;;;;;4971429;28;20463;-78
2022/10/23 11:24:38;;;;;;;0.10;0.10;;;;;;;;;;4972253;28;20408;-80
2022/10/23 11:27:18;;;;;;;0.20;0.20;;;;;;;;;;4971963;28;20977;-83
2022/10/23 11:29:44;;;;;;;0.20;0.20;;;;;;;;;;4970931;28;20424;-81
2022/10/23 11:32:10;;;;;;;0.10;0.10;;;;;;;;;;4971746;28;20424;-78
2022/10/23 11:34:49;;;;;;;0.10;0.10;;;;;;;;;;4971454;28;20416;-85
2022/10/23 11:37:19;;;;;;;0.70;0.60;;;;;;;;;;4971894;28;20451;-82
2022/10/23 11:40:00;;;;;;;0.10;0.10;;;;;;;;;;4970557;28;20466;-81
2022/10/23 11:42:31;;;;;;;0.10;0.10;;;;;;;;;;4971490;28;20863;-80
2022/10/23 11:44:57;;;;;;;0.30;0.30;;;;;;;;;;4970978;28;20443;-80
2022/10/23 11:47:37;;;;;;;0.70;0.60;;;;;;;;;;4971240;28;20424;-80
2022/10/23 11:50:06;;;;;;;0.10;0.10;;;;;;;;;;4971145;28;20914;-80
2022/10/23 11:52:33;;;;;;;0.10;0.10;;;;;;;;;;4971837;28;20420;-80
2022/10/23 11:55:23;;;;;;;0.13;0.13;;;;;;;;;;4970813;28;20899;-80
2022/10/23 11:58:01;;;;;;;0.10;0.10;;;;;;;;;;4968836;28;20460;-81
2022/10/23 12:00:29;;;;;;;0.10;0.10;;;;;;;;;;4971281;28;20432;-80
2022/10/23 12:02:55;;;;;;;0.10;0.10;;;;;;;;;;4969778;28;20450;-81
2022/10/23 12:05:37;;;;;;;0.30;0.30;;;;;;;;;;4971418;28;20416;-79
2022/10/23 12:08:05;;;;;;;0.20;0.20;;;;;;;;;;4971367;28;20424;-80
2022/10/23 12:10:33;;;;;;;0.10;0.10;;;;;;;;;;4974420;28;20419;-80
2022/10/23 12:13:02;;;;;;;2.17;0.60;;;;;;;;;;4975030;28;20427;-81
2022/10/23 12:15:29;;;;;;;0.10;0.10;;;;;;;;;;4975289;28;20412;-80
2022/10/23 12:17:57;;;;;;;0.30;0.30;;;;;;;;;;4974310;28;20428;-79
2022/10/23 12:20:26;;;;;;;0.10;0.10;;;;;;;;;;4974264;28;20767;-79
2022/10/23 12:23:11;;;;;;;0.40;0.40;;;;;;;;;;4974181;28;20443;-80
2022/10/23 12:26:06;;;;;;;0.10;0.10;;;;;;;;;;4972598;28;20513;-81
2022/10/23 12:28:58;;;;;;;0.50;0.30;;;;;;;;;;4974643;28;20432;-81
2022/10/23 12:31:29;;;;;;;0.57;0.35;;;;;;;;;;4967081;28;20784;-85
2022/10/23 12:33:59;;;;;;;0.20;0.20;;;;;;;;;;4974290;28;20423;-85
2022/10/23 12:36:39;;;;;;;0.10;0.10;;;;;;;;;;4974714;28;20431;-80
2022/10/23 12:39:24;;;;;;;0.13;0.13;;;;;;;;;;4974351;28;20518;-84
2022/10/23 12:41:50;;;;;;;0.10;0.10;;;;;;;;;;4974536;28;20493;-81
2022/10/23 12:44:16;;;;;;;0.10;0.10;;;;;;;;;;4972988;28;20791;-83
2022/10/23 12:46:46;;;;;;;0.20;0.20;;;;;;;;;;4973294;28;20443;-82
2022/10/23 12:49:14;;;;;;;0.10;0.10;;;;;;;;;;4973919;28;20538;-81
2022/10/23 12:51:40;;;;;;;0.10;0.10;;;;;;;;;;4973477;28;20416;-82
2022/10/23 12:54:15;;;;;;;0.10;0.10;;;;;;;;;;4974215;28;20448;-82
2022/10/23 12:56:43;;;;;;;0.10;0.10;;;;;;;;;;4973546;28;20456;-82
2022/10/23 12:59:15;;;;;;;0.10;0.10;;;;;;;;;;4988222;28;20447;-81
2022/10/23 13:01:41;;;;;;;0.55;0.55;;;;;;;;;;4973560;28;20502;-82
2022/10/23 13:04:16;;;;;;;0.20;0.20;;;;;;;;;;4973834;28;20414;-81
2022/10/23 13:06:42;;;;;;;0.28;0.28;;;;;;;;;;4974664;28;20452;-79
2022/10/23 13:09:14;;;;;;;0.45;0.45;;;;;;;;;;4974608;28;20462;-80
2022/10/23 13:11:40;;;;;;;0.10;0.10;;;;;;;;;;4972863;28;20443;-79
2022/10/23 13:14:13;;;;;;;0.50;0.50;;;;;;;;;;4988757;28;20404;-77
2022/10/23 13:16:39;;;;;;;0.20;0.20;;;;;;;;;;4974026;28;20497;-80
2022/10/23 13:19:05;;;;;;;0.10;0.10;;;;;;;;;;4973803;28;20408;-79
2022/10/23 13:21:32;;;;;;;0.10;0.10;;;;;;;;;;4974046;28;20926;-80
2022/10/23 13:23:58;;;;;;;0.10;0.10;;;;;;;;;;4974580;28;20412;-80
2022/10/23 13:26:24;;;;;;;0.10;0.10;;;;;;;;;;4988981;28;20420;-79
2022/10/23 13:28:50;;;;;;;0.10;0.10;;;;;;;;;;4973599;28;20431;-80
2022/10/23 13:31:16;;;;;;;0.10;0.10;;;;;;;;;;4974549;28;20412;-80
2022/10/23 13:33:44;;;;;;;0.30;0.30;;;;;;;;;;4973894;28;20796;-81
2022/10/23 13:36:12;;;;;;;0.20;0.20;;;;;;;;;;4973830;28;20965;-80
2022/10/23 13:38:43;;;;;;;0.10;0.10;;;;;;;;;;4989611;28;20424;-81
2022/10/23 13:41:19;;;;;;;0.10;0.10;;;;;;;;;;4974020;28;20464;-80
2022/10/23 13:43:46;;;;;;;0.10;0.10;;;;;;;;;;4974248;28;20430;-79
2022/10/23 13:46:20;;;;;;;0.10;0.10;;;;;;;;;;4975638;28;20417;-81
2022/10/23 13:48:46;;;;;;;0.20;0.20;;;;;;;;;;4974760;28;20427;-80
2022/10/23 13:51:20;;;;;;;1.00;0.60;;;;;;;;;;4973347;28;20416;-79
2022/10/23 13:53:47;;;;;;;0.30;0.20;;;;;;;;;;4972989;28;21009;-79
2022/10/23 13:56:13;;;;;;;0.10;0.10;;;;;;;;;;4972180;28;20515;-80
2022/10/23 13:58:39;;;;;;;0.32;0.32;;;;;;;;;;4972130;28;20416;-79
2022/10/23 14:01:06;;;;;;;0.77;0.77;;;;;;;;;;4973117;28;20899;-80
2022/10/23 14:03:32;;;;;;;0.20;0.20;;;;;;;;;;4972720;28;20439;-81
2022/10/23 14:05:59;;;;;;;0.10;0.10;;;;;;;;;;4972583;28;20419;-81
2022/10/23 14:08:25;;;;;;;0.10;0.10;;;;;;;;;;4971730;28;20424;-80
2022/10/23 14:10:51;;;;;;;0.10;0.10;;;;;;;;;;4972707;28;20416;-84
2022/10/23 14:13:17;;;;;;;0.10;0.10;;;;;;;;;;4971362;28;20416;-86
2022/10/23 14:15:43;;;;;;;0.10;0.10;;;;;;;;;;4955476;28;20427;-85
2022/10/23 14:18:09;;;;;;;0.20;0.20;;;;;;;;;;4970939;28;20419;-86
2022/10/23 14:20:37;;;;;;;0.10;0.10;;;;;;;;;;4971304;28;21060;-83
2022/10/23 14:23:03;;;;;;;0.20;0.20;;;;;;;;;;4971159;28;20819;-82
2022/10/23 14:25:30;;;;;;;0.10;0.10;;;;;;;;;;4972159;28;20456;-81
2022/10/23 14:27:56;;;;;;;0.10;0.10;;;;;;;;;;4971367;28;20949;-80
2022/10/23 14:30:22;;;;;;;0.10;0.10;;;;;;;;;;4971469;28;20913;-81
2022/10/23 14:32:48;;;;;;;0.10;0.10;;;;;;;;;;4972008;28;20411;-80
2022/10/23 14:35:15;;;;;;;0.10;0.10;;;;;;;;;;4972590;28;20416;-82
2022/10/23 14:37:41;;;;;;;0.20;0.20;;;;;;;;;;4973427;28;20419;-82
2022/10/23 14:40:07;;;;;;;0.10;0.10;;;;;;;;;;4972643;28;20428;-78
2022/10/23 14:42:33;;;;;;;0.10;0.10;;;;;;;;;;4972955;28;20439;-84
2022/10/23 14:45:01;;;;;;;0.20;0.20;;;;;;;;;;4972296;28;20412;-82
2022/10/23 14:47:27;;;;;;;0.10;0.10;;;;;;;;;;4972072;28;20422;-81
2022/10/23 14:49:55;;;;;;;0.10;0.10;;;;;;;;;;4972655;28;20404;-78
2022/10/23 14:52:21;;;;;;;0.10;0.10;;;;;;;;;;4971735;28;20516;-84
2022/10/23 14:54:47;;;;;;;0.10;0.10;;;;;;;;;;4971967;28;20439;-79